sensor_id;sensor_type;location;lat;lon;timestamp;pressure;altitude;pressure_sealevel;temperature;humidity
75065;BME280;63646;49.110;9.140;2023-02-04T05:02:37;100882.72;;;20.53;52.53
75065;BME280;63646;49.110;9.140;2023-02-04T05:05:02;100876.84;;;20.48;52.72
75065;BME280;63646;49.110;9.140;2023-02-04T05:07:28;100886.03;;;20.57;52.17
75065;BME280;63646;49.110;9.140;2023-02-04T05:09:53;100879.66;;;20.59;52.32
75065;BME280;63646;49.110;9.140;2023-02-04T05:12:19;100883.06;;;20.61;52.13
75065;BME280;63646;49.110;9.140;2023-02-04T05:14:44;100882.00;;;20.64;52.25
75065;BME280;63646;49.110;9.140;2023-02-04T05:17:10;100892.03;;;20.73;52.38
75065;BME280;63646;49.110;9.140;2023-02-04T05:19:36;100900.50;;;20.78;52.27
75065;BME280;63646;49.110;9.140;2023-02-04T05:22:02;100905.72;;;20.80;52.20
75065;BME280;63646;49.110;9.140;2023-02-04T05:24:27;100887.97;;;20.80;51.76
75065;BME280;63646;49.110;9.140;2023-02-04T05:26:53;100902.66;;;20.86;51.57
75065;BME280;63646;49.110;9.140;2023-02-04T05:29:18;100894.69;;;20.86;51.45
75065;BME280;63646;49.110;9.140;2023-02-04T05:31:44;100890.13;;;20.88;51.65
75065;BME280;63646;49.110;9.140;2023-02-04T05:34:09;100882.88;;;20.90;51.49
75065;BME280;63646;49.110;9.140;2023-02-04T05:36:35;100884.69;;;20.89;51.44
75065;BME280;63646;49.110;9.140;2023-02-04T05:39:00;100885.44;;;20.91;51.48
75065;BME280;63646;49.110;9.140;2023-02-04T05:41:26;100886.38;;;20.90;51.39
75065;BME280;63646;49.110;9.140;2023-02-04T05:43:51;100902.88;;;20.95;51.36
75065;BME280;63646;49.110;9.140;2023-02-04T05:46:16;100906.25;;;20.97;51.29
75065;BME280;63646;49.110;9.140;2023-02-04T05:48:42;100897.00;;;20.90;51.14
75065;BME280;63646;49.110;9.140;2023-02-04T05:51:07;100915.19;;;20.96;51.26
75065;BME280;63646;49.110;9.140;2023-02-04T05:53:33;100909.03;;;20.96;50.92
75065;BME280;63646;49.110;9.140;2023-02-04T05:55:58;100916.69;;;21.01;51.30
75065;BME280;63646;49.110;9.140;2023-02-04T05:58:24;100926.25;;;21.03;51.20
75065;BME280;63646;49.110;9.140;2023-02-04T06:00:49;100922.00;;;21.01;50.78
75065;BME280;63646;49.110;9.140;2023-02-04T06:03:14;100929.97;;;21.01;51.31
75065;BME280;63646;49.110;9.140;2023-02-04T06:05:43;100929.56;;;21.07;50.81
75065;BME280;63646;49.110;9.140;2023-02-04T06:08:08;100938.06;;;21.12;50.87
75065;BME280;63646;49.110;9.140;2023-02-04T06:10:35;100935.53;;;21.10;51.21
75065;BME280;63646;49.110;9.140;2023-02-04T06:13:00;100939.88;;;21.11;51.13
75065;BME280;63646;49.110;9.140;2023-02-04T06:15:26;100944.97;;;21.14;50.69
75065;BME280;63646;49.110;9.140;2023-02-04T06:17:51;100952.19;;;21.12;51.06
75065;BME280;63646;49.110;9.140;2023-02-04T06:20:17;100953.03;;;21.13;50.84
75065;BME280;63646;49.110;9.140;2023-02-04T06:22:43;100948.91;;;21.09;50.85
75065;BME280;63646;49.110;9.140;2023-02-04T06:25:08;100953.16;;;21.11;50.84
75065;BME280;63646;49.110;9.140;2023-02-04T06:27:33;100961.00;;;21.13;50.73
75065;BME280;63646;49.110;9.140;2023-02-04T06:29:59;100966.88;;;21.18;50.82
75065;BME280;63646;49.110;9.140;2023-02-04T06:32:24;100963.47;;;21.16;51.54
75065;BME280;63646;49.110;9.140;2023-02-04T06:34:50;100962.50;;;21.17;50.65
75065;BME280;63646;49.110;9.140;2023-02-04T06:37:15;100969.63;;;21.16;50.62
75065;BME280;63646;49.110;9.140;2023-02-04T06:39:42;100961.66;;;21.16;50.75
75065;BME280;63646;49.110;9.140;2023-02-04T06:42:07;100959.31;;;21.12;50.83
75065;BME280;63646;49.110;9.140;2023-02-04T06:44:33;100970.47;;;21.17;50.50
75065;BME280;63646;49.110;9.140;2023-02-04T06:46:58;100975.06;;;21.15;50.63
75065;BME280;63646;49.110;9.140;2023-02-04T06:49:24;100966.44;;;21.11;50.54
75065;BME280;63646;49.110;9.140;2023-02-04T06:51:50;100971.97;;;21.08;50.81
75065;BME280;63646;49.110;9.140;2023-02-04T06:54:15;100971.31;;;21.05;51.09
75065;BME280;63646;49.110;9.140;2023-02-04T06:56:41;100988.03;;;21.07;51.22
75065;BME280;63646;49.110;9.140;2023-02-04T06:59:08;100987.28;;;21.05;50.99
75065;BME280;63646;49.110;9.140;2023-02-04T07:01:34;100987.28;;;21.05;50.76
75065;BME280;63646;49.110;9.140;2023-02-04T07:03:59;100990.69;;;21.07;51.09
75065;BME280;63646;49.110;9.140;2023-02-04T07:06:25;101002.38;;;21.04;50.79
75065;BME280;63646;49.110;9.140;2023-02-04T07:08:50;101008.53;;;21.05;50.95
75065;BME280;63646;49.110;9.140;2023-02-04T07:11:16;101020.84;;;21.06;50.73
75065;BME280;63646;49.110;9.140;2023-02-04T07:13:41;101012.56;;;20.97;50.91
75065;BME280;63646;49.110;9.140;2023-02-04T07:16:07;101018.19;;;21.06;51.03
75065;BME280;63646;49.110;9.140;2023-02-04T07:18:32;101018.84;;;21.09;50.55
75065;BME280;63646;49.110;9.140;2023-02-04T07:20:58;101022.47;;;21.08;51.00
75065;BME280;63646;49.110;9.140;2023-02-04T07:23:23;101023.22;;;21.10;51.07
75065;BME280;63646;49.110;9.140;2023-02-04T07:25:50;101026.75;;;21.11;50.45
75065;BME280;63646;49.110;9.140;2023-02-04T07:28:18;101027.66;;;21.10;50.96
75065;BME280;63646;49.110;9.140;2023-02-04T07:30:44;101031.09;;;21.12;50.50
75065;BME280;63646;49.110;9.140;2023-02-04T07:33:09;101031.50;;;21.06;50.51
75065;BME280;63646;49.110;9.140;2023-02-04T07:35:35;101033.22;;;21.07;50.59
75065;BME280;63646;49.110;9.140;2023-02-04T07:38:02;101020.84;;;21.06;50.98
75065;BME280;63646;49.110;9.140;2023-02-04T07:40:28;101028.63;;;21.09;50.86
75065;BME280;63646;49.110;9.140;2023-02-04T07:42:53;101031.28;;;21.09;50.93
75065;BME280;63646;49.110;9.140;2023-02-04T07:45:19;101044.59;;;21.09;50.55
75065;BME280;63646;49.110;9.140;2023-02-04T07:47:44;101049.16;;;21.07;50.66
75065;BME280;63646;49.110;9.140;2023-02-04T07:50:09;101060.66;;;21.07;51.02
75065;BME280;63646;49.110;9.140;2023-02-04T07:52:35;101069.59;;;21.06;50.73
75065;BME280;63646;49.110;9.140;2023-02-04T07:55:00;101078.41;;;21.07;51.07
75065;BME280;63646;49.110;9.140;2023-02-04T07:57:26;101071.97;;;20.96;51.00
75065;BME280;63646;49.110;9.140;2023-02-04T07:59:51;101075.94;;;21.04;50.74
75065;BME280;63646;49.110;9.140;2023-02-04T08:02:17;101085.63;;;21.05;51.31
75065;BME280;63646;49.110;9.140;2023-02-04T08:04:42;101076.78;;;21.04;50.84
75065;BME280;63646;49.110;9.140;2023-02-04T08:07:07;101079.56;;;21.03;50.96
75065;BME280;63646;49.110;9.140;2023-02-04T08:09:33;101075.94;;;21.04;50.69
75065;BME280;63646;49.110;9.140;2023-02-04T08:11:58;101082.88;;;21.06;50.80
75065;BME280;63646;49.110;9.140;2023-02-04T08:14:24;101080.50;;;21.02;50.87
75065;BME280;63646;49.110;9.140;2023-02-04T08:16:50;101093.28;;;21.09;50.62
75065;BME280;63646;49.110;9.140;2023-02-04T08:19:15;101094.88;;;21.12;51.21
75065;BME280;63646;49.110;9.140;2023-02-04T08:21:46;101105.31;;;21.15;51.03
75065;BME280;63646;49.110;9.140;2023-02-04T08:24:13;101102.84;;;21.12;51.24
75065;BME280;63646;49.110;9.140;2023-02-04T08:26:40;101110.84;;;21.12;51.33
75065;BME280;63646;49.110;9.140;2023-02-04T08:29:07;101103.97;;;21.22;51.61
75065;BME280;63646;49.110;9.140;2023-02-04T08:31:36;101114.47;;;21.23;51.41
75065;BME280;63646;49.110;9.140;2023-02-04T08:34:03;101100.66;;;21.18;50.80
75065;BME280;63646;49.110;9.140;2023-02-04T08:36:29;101125.03;;;21.25;50.71
75065;BME280;63646;49.110;9.140;2023-02-04T08:38:54;101124.78;;;21.28;51.14
75065;BME280;63646;49.110;9.140;2023-02-04T08:41:19;101120.56;;;21.26;50.89
75065;BME280;63646;49.110;9.140;2023-02-04T08:43:45;101124.91;;;21.27;50.70
75065;BME280;63646;49.110;9.140;2023-02-04T08:46:10;101140.00;;;21.26;51.22
75065;BME280;63646;49.110;9.140;2023-02-04T08:48:36;101133.84;;;21.26;51.02
75065;BME280;63646;49.110;9.140;2023-02-04T08:51:02;101129.13;;;21.16;50.84
75065;BME280;63646;49.110;9.140;2023-02-04T08:53:28;101141.91;;;21.24;51.02
75065;BME280;63646;49.110;9.140;2023-02-04T08:55:53;101150.66;;;21.26;51.05
75065;BME280;63646;49.110;9.140;2023-02-04T08:58:18;101137.75;;;21.20;51.22
75065;BME280;63646;49.110;9.140;2023-02-04T09:00:44;101136.06;;;21.19;51.51
75065;BME280;63646;49.110;9.140;2023-02-04T09:03:09;101151.69;;;21.23;50.91
75065;BME280;63646;49.110;9.140;2023-02-04T09:05:34;101154.28;;;21.25;51.19
75065;BME280;63646;49.110;9.140;2023-02-04T09:08:00;101154.28;;;21.25;51.35
75065;BME280;63646;49.110;9.140;2023-02-04T09:10:25;101161.28;;;21.26;50.87
75065;BME280;63646;49.110;9.140;2023-02-04T09:12:51;101164.13;;;21.23;51.07
75065;BME280;63646;49.110;9.140;2023-02-04T09:15:20;101158.09;;;21.21;51.18
75065;BME280;63646;49.110;9.140;2023-02-04T09:17:46;101164.06;;;21.25;50.87
75065;BME280;63646;49.110;9.140;2023-02-04T09:20:12;101167.44;;;21.27;51.02
75065;BME280;63646;49.110;9.140;2023-02-04T09:22:37;101167.56;;;21.25;51.38
75065;BME280;63646;49.110;9.140;2023-02-04T09:25:03;101171.16;;;21.24;51.01
75065;BME280;63646;49.110;9.140;2023-02-04T09:27:29;101172.13;;;21.23;51.10
75065;BME280;63646;49.110;9.140;2023-02-04T09:29:54;101187.75;;;21.28;51.23
75065;BME280;63646;49.110;9.140;2023-02-04T09:32:20;101177.44;;;21.23;50.84
75065;BME280;63646;49.110;9.140;2023-02-04T09:34:46;101181.72;;;21.26;51.06
75065;BME280;63646;49.110;9.140;2023-02-04T09:37:11;101189.56;;;21.27;51.02
75065;BME280;63646;49.110;9.140;2023-02-04T09:39:37;101197.66;;;21.26;51.04
75065;BME280;63646;49.110;9.140;2023-02-04T09:42:02;101200.41;;;21.24;51.44
75065;BME280;63646;49.110;9.140;2023-02-04T09:44:28;101196.81;;;21.25;51.07
75065;BME280;63646;49.110;9.140;2023-02-04T09:46:56;101196.81;;;21.25;51.28
75065;BME280;63646;49.110;9.140;2023-02-04T09:49:23;101185.91;;;21.15;51.42
75065;BME280;63646;49.110;9.140;2023-02-04T09:51:49;101208.59;;;21.21;51.30
75065;BME280;63646;49.110;9.140;2023-02-04T09:54:20;101207.63;;;21.22;51.35
75065;BME280;63646;49.110;9.140;2023-02-04T09:56:46;101201.84;;;21.15;51.08
75065;BME280;63646;49.110;9.140;2023-02-04T09:59:17;101197.19;;;21.19;51.44
75065;BME280;63646;49.110;9.140;2023-02-04T10:01:46;101212.09;;;21.21;51.37
75065;BME280;63646;49.110;9.140;2023-02-04T10:04:16;101204.41;;;21.17;51.72
75065;BME280;63646;49.110;9.140;2023-02-04T10:06:43;101205.28;;;21.17;51.81
75065;BME280;63646;49.110;9.140;2023-02-04T10:09:11;101205.28;;;21.17;51.21
75065;BME280;63646;49.110;9.140;2023-02-04T10:11:40;101209.72;;;21.17;51.66
75065;BME280;63646;49.110;9.140;2023-02-04T10:14:12;101199.00;;;21.18;51.60
75065;BME280;63646;49.110;9.140;2023-02-04T10:16:39;101198.81;;;21.21;51.55
75065;BME280;63646;49.110;9.140;2023-02-04T10:19:13;101204.22;;;21.20;50.96
75065;BME280;63646;49.110;9.140;2023-02-04T10:21:40;101201.66;;;21.18;51.38
75065;BME280;63646;49.110;9.140;2023-02-04T10:24:15;101205.19;;;21.19;51.60
75065;BME280;63646;49.110;9.140;2023-02-04T10:26:41;101195.69;;;21.15;51.21
75065;BME280;63646;49.110;9.140;2023-02-04T10:29:13;101196.84;;;21.11;51.89
75065;BME280;63646;49.110;9.140;2023-02-04T10:31:41;101210.78;;;21.14;51.50
75065;BME280;63646;49.110;9.140;2023-02-04T10:34:34;101205.56;;;21.13;51.42
75065;BME280;63646;49.110;9.140;2023-02-04T10:37:18;101213.53;;;21.13;51.49
75065;BME280;63646;49.110;9.140;2023-02-04T10:39:45;101211.66;;;21.15;51.80
75065;BME280;63646;49.110;9.140;2023-02-04T10:42:28;101195.22;;;21.08;51.33
75065;BME280;63646;49.110;9.140;2023-02-04T10:44:53;101216.78;;;21.18;51.72
75065;BME280;63646;49.110;9.140;2023-02-04T10:52:19;101217.31;;;21.23;51.20
75065;BME280;63646;49.110;9.140;2023-02-04T10:54:48;101218.28;;;21.22;51.19
75065;BME280;63646;49.110;9.140;2023-02-04T10:57:21;101216.34;;;21.24;51.46
75065;BME280;63646;49.110;9.140;2023-02-04T10:59:50;101215.63;;;21.22;51.27
75065;BME280;63646;49.110;9.140;2023-02-04T11:05:20;101227.09;;;21.22;51.35
75065;BME280;63646;49.110;9.140;2023-02-04T11:07:50;101206.03;;;21.19;51.30
75065;BME280;63646;49.110;9.140;2023-02-04T11:10:18;101211.25;;;21.21;51.39
75065;BME280;63646;49.110;9.140;2023-02-04T11:12:58;101218.81;;;21.27;51.11
75065;BME280;63646;49.110;9.140;2023-02-04T11:15:47;101217.84;;;21.28;50.87
75065;BME280;63646;49.110;9.140;2023-02-04T11:20:46;101214.25;;;21.29;51.07
75065;BME280;63646;49.110;9.140;2023-02-04T11:23:14;101218.50;;;21.32;50.56
75065;BME280;63646;49.110;9.140;2023-02-04T11:25:40;101212.53;;;21.28;50.55
75065;BME280;63646;49.110;9.140;2023-02-04T11:28:23;101207.97;;;21.30;50.46
75065;BME280;63646;49.110;9.140;2023-02-04T11:30:58;101211.50;;;21.31;50.44
75065;BME280;63646;49.110;9.140;2023-02-04T11:33:39;101214.06;;;21.32;49.92
75065;BME280;63646;49.110;9.140;2023-02-04T11:36:10;101219.19;;;21.35;49.96
75065;BME280;63646;49.110;9.140;2023-02-04T11:38:37;101222.81;;;21.34;50.05
75065;BME280;63646;49.110;9.140;2023-02-04T11:41:04;101211.81;;;21.26;49.75
75065;BME280;63646;49.110;9.140;2023-02-04T11:43:33;101215.81;;;21.33;49.77
75065;BME280;63646;49.110;9.140;2023-02-04T11:46:12;101222.63;;;21.37;49.79
75065;BME280;63646;49.110;9.140;2023-02-04T11:48:43;101215.81;;;21.33;50.12
75065;BME280;63646;49.110;9.140;2023-02-04T11:51:14;101216.44;;;21.37;49.59
75065;BME280;63646;49.110;9.140;2023-02-04T11:53:41;101217.50;;;21.34;49.59
75065;BME280;63646;49.110;9.140;2023-02-04T11:56:06;101226.13;;;21.38;49.46
75065;BME280;63646;49.110;9.140;2023-02-04T11:58:32;101219.38;;;21.32;49.59
75065;BME280;63646;49.110;9.140;2023-02-04T12:00:58;101221.78;;;21.37;49.94
75065;BME280;63646;49.110;9.140;2023-02-04T12:03:31;101222.72;;;21.36;49.67
75065;BME280;63646;49.110;9.140;2023-02-04T12:06:00;101227.81;;;21.39;49.93
75065;BME280;63646;49.110;9.140;2023-02-04T12:08:29;101236.75;;;21.38;49.73
75065;BME280;63646;49.110;9.140;2023-02-04T12:11:12;101235.91;;;21.37;50.25
75065;BME280;63646;49.110;9.140;2023-02-04T12:13:52;101234.09;;;21.38;50.17
75065;BME280;63646;49.110;9.140;2023-02-04T12:16:19;101234.41;;;21.33;50.02
75065;BME280;63646;49.110;9.140;2023-02-04T12:18:45;101239.72;;;21.33;50.35
75065;BME280;63646;49.110;9.140;2023-02-04T12:21:10;101239.63;;;21.35;50.24
75065;BME280;63646;49.110;9.140;2023-02-04T12:23:38;101241.44;;;21.34;50.42
75065;BME280;63646;49.110;9.140;2023-02-04T12:26:07;101245.09;;;21.32;50.06
75065;BME280;63646;49.110;9.140;2023-02-04T12:28:33;101233.81;;;21.28;50.56
75065;BME280;63646;49.110;9.140;2023-02-04T12:30:59;101240.00;;;21.29;50.12
75065;BME280;63646;49.110;9.140;2023-02-04T12:33:25;101232.09;;;21.27;50.49
75065;BME280;63646;49.110;9.140;2023-02-04T12:35:50;101232.41;;;21.37;50.23
75065;BME280;63646;49.110;9.140;2023-02-04T12:38:16;101222.13;;;21.31;49.87
75065;BME280;63646;49.110;9.140;2023-02-04T12:40:41;101227.09;;;21.37;50.54
75065;BME280;63646;49.110;9.140;2023-02-04T12:43:07;101227.94;;;21.37;50.44
75065;BME280;63646;49.110;9.140;2023-02-04T12:45:33;101234.09;;;21.38;50.12
75065;BME280;63646;49.110;9.140;2023-02-04T12:47:58;101232.28;;;21.38;50.49
75065;BME280;63646;49.110;9.140;2023-02-04T12:50:24;101223.47;;;21.38;50.20
75065;BME280;63646;49.110;9.140;2023-02-04T12:52:51;101225.09;;;21.40;50.61
75065;BME280;63646;49.110;9.140;2023-02-04T12:55:18;101230.47;;;21.39;50.60
75065;BME280;63646;49.110;9.140;2023-02-04T12:57:43;101216.44;;;21.37;50.71
75065;BME280;63646;49.110;9.140;2023-02-04T13:00:10;101208.75;;;21.32;50.31
75065;BME280;63646;49.110;9.140;2023-02-04T13:02:36;101224.31;;;21.38;50.23
75065;BME280;63646;49.110;9.140;2023-02-04T13:05:02;101233.25;;;21.37;50.30
75065;BME280;63646;49.110;9.140;2023-02-04T13:07:27;101227.94;;;21.37;50.67
75065;BME280;63646;49.110;9.140;2023-02-04T13:09:53;101232.41;;;21.37;50.43
75065;BME280;63646;49.110;9.140;2023-02-04T13:12:18;101229.75;;;21.37;50.80
75065;BME280;63646;49.110;9.140;2023-02-04T13:14:44;101233.16;;;21.39;50.32
75065;BME280;63646;49.110;9.140;2023-02-04T13:17:09;101219.38;;;21.32;50.60
75065;BME280;63646;49.110;9.140;2023-02-04T13:19:35;101225.09;;;21.40;50.48
75065;BME280;63646;49.110;9.140;2023-02-04T13:22:01;101219.13;;;21.37;50.56
75065;BME280;63646;49.110;9.140;2023-02-04T13:24:27;101228.72;;;20.69;40.36
75065;BME280;63646;49.110;9.140;2023-02-04T13:26:53;101223.88;;;20.17;39.21
75065;BME280;63646;49.110;9.140;2023-02-04T13:29:19;101232.06;;;19.84;39.13
75065;BME280;63646;49.110;9.140;2023-02-04T13:31:46;101229.72;;;19.64;38.24
75065;BME280;63646;49.110;9.140;2023-02-04T13:34:11;101221.50;;;19.52;38.88
75065;BME280;63646;49.110;9.140;2023-02-04T13:36:40;101227.34;;;19.27;36.96
75065;BME280;63646;49.110;9.140;2023-02-04T13:39:07;101240.84;;;19.07;36.88
75065;BME280;63646;49.110;9.140;2023-02-04T13:41:33;101233.84;;;18.90;37.20
75065;BME280;63646;49.110;9.140;2023-02-04T13:44:01;101234.09;;;18.86;36.83
75065;BME280;63646;49.110;9.140;2023-02-04T13:46:27;101229.41;;;19.06;38.18
75065;BME280;63646;49.110;9.140;2023-02-04T13:48:52;101228.63;;;19.36;41.28
75065;BME280;63646;49.110;9.140;2023-02-04T13:51:18;101225.28;;;19.64;43.32
75065;BME280;63646;49.110;9.140;2023-02-04T13:53:44;101220.69;;;19.82;44.33
75065;BME280;63646;49.110;9.140;2023-02-04T13:56:12;101239.25;;;20.12;44.11
75065;BME280;63646;49.110;9.140;2023-02-04T13:58:38;101219.06;;;20.24;43.99
75065;BME280;63646;49.110;9.140;2023-02-04T14:01:17;101218.25;;;20.38;44.03
75065;BME280;63646;49.110;9.140;2023-02-04T14:03:45;101229.75;;;20.53;44.10
75065;BME280;63646;49.110;9.140;2023-02-04T14:06:11;101237.91;;;20.64;44.25
75065;BME280;63646;49.110;9.140;2023-02-04T14:08:37;101235.81;;;20.69;44.40
75065;BME280;63646;49.110;9.140;2023-02-04T14:11:03;101244.91;;;20.79;44.17
75065;BME280;63646;49.110;9.140;2023-02-04T14:13:29;101236.75;;;20.82;43.95
75065;BME280;63646;49.110;9.140;2023-02-04T14:15:55;101246.81;;;20.91;43.94
75065;BME280;63646;49.110;9.140;2023-02-04T14:18:21;101244.59;;;20.98;44.48
75065;BME280;63646;49.110;9.140;2023-02-04T14:20:46;101254.19;;;21.01;44.73
75065;BME280;63646;49.110;9.140;2023-02-04T14:23:12;101242.59;;;21.02;44.76
75065;BME280;63646;49.110;9.140;2023-02-04T14:25:37;101256.66;;;21.04;45.17
75065;BME280;63646;49.110;9.140;2023-02-04T14:28:03;101265.13;;;21.10;44.79
75065;BME280;63646;49.110;9.140;2023-02-04T14:30:30;101253.72;;;21.08;45.42
75065;BME280;63646;49.110;9.140;2023-02-04T14:32:55;101258.06;;;21.09;45.55
75065;BME280;63646;49.110;9.140;2023-02-04T14:35:28;101261.56;;;21.10;45.74
75065;BME280;63646;49.110;9.140;2023-02-04T14:37:53;101252.19;;;21.04;45.87
75065;BME280;63646;49.110;9.140;2023-02-04T14:40:19;101256.25;;;21.10;45.85
75065;BME280;63646;49.110;9.140;2023-02-04T14:42:45;101264.16;;;21.11;46.00
75065;BME280;63646;49.110;9.140;2023-02-04T14:45:20;101263.31;;;21.11;46.08
75065;BME280;63646;49.110;9.140;2023-02-04T14:47:45;101258.28;;;21.06;46.23
75065;BME280;63646;49.110;9.140;2023-02-04T14:50:13;101263.13;;;21.14;46.42
75065;BME280;63646;49.110;9.140;2023-02-04T14:52:39;101270.13;;;21.15;46.81
75065;BME280;63646;49.110;9.140;2023-02-04T14:55:05;101272.59;;;21.18;46.48
75065;BME280;63646;49.110;9.140;2023-02-04T14:57:31;101270.13;;;21.15;45.83
75065;BME280;63646;49.110;9.140;2023-02-04T14:59:56;101273.00;;;20.97;46.57
75065;BME280;63646;49.110;9.140;2023-02-04T15:02:22;101275.81;;;21.09;47.21
75065;BME280;63646;49.110;9.140;2023-02-04T15:04:47;101273.19;;;20.94;46.93
75065;BME280;63646;49.110;9.140;2023-02-04T15:07:13;101272.63;;;21.04;46.50
75065;BME280;63646;49.110;9.140;2023-02-04T15:09:39;101265.38;;;21.06;46.67
75065;BME280;63646;49.110;9.140;2023-02-04T15:12:04;101272.13;;;21.11;46.64
75065;BME280;63646;49.110;9.140;2023-02-04T15:14:30;101277.34;;;21.13;46.70
75065;BME280;63646;49.110;9.140;2023-02-04T15:16:56;101272.00;;;21.13;46.55
75065;BME280;63646;49.110;9.140;2023-02-04T15:19:21;101278.84;;;21.17;46.95
75065;BME280;63646;49.110;9.140;2023-02-04T15:21:49;101282.28;;;21.19;46.29
75065;BME280;63646;49.110;9.140;2023-02-04T15:24:14;101280.47;;;21.19;46.90
75065;BME280;63646;49.110;9.140;2023-02-04T15:26:43;101281.97;;;21.23;46.58
75065;BME280;63646;49.110;9.140;2023-02-04T15:29:08;101287.94;;;21.27;46.81
75065;BME280;63646;49.110;9.140;2023-02-04T15:31:33;101290.59;;;21.27;46.68
75065;BME280;63646;49.110;9.140;2023-02-04T15:34:01;101290.06;;;21.22;47.03
75065;BME280;63646;49.110;9.140;2023-02-04T15:36:27;101296.69;;;21.29;47.19
75065;BME280;63646;49.110;9.140;2023-02-04T15:38:53;101300.19;;;21.30;47.25
75065;BME280;63646;49.110;9.140;2023-02-04T15:41:18;101296.59;;;21.31;46.70
75065;BME280;63646;49.110;9.140;2023-02-04T15:43:43;101305.25;;;21.34;46.90
75065;BME280;63646;49.110;9.140;2023-02-04T15:46:09;101298.22;;;21.33;47.00
75065;BME280;63646;49.110;9.140;2023-02-04T15:48:37;101299.94;;;21.34;47.33
75065;BME280;63646;49.110;9.140;2023-02-04T15:51:02;101305.41;;;21.31;47.09
75065;BME280;63646;49.110;9.140;2023-02-04T15:53:30;101305.25;;;21.34;47.31
75065;BME280;63646;49.110;9.140;2023-02-04T15:55:56;101300.78;;;21.35;47.65
75065;BME280;63646;49.110;9.140;2023-02-04T15:58:21;101298.97;;;21.35;47.30
75065;BME280;63646;49.110;9.140;2023-02-04T16:00:47;101306.22;;;21.33;47.50
75065;BME280;63646;49.110;9.140;2023-02-04T16:03:12;101307.72;;;21.37;47.57
75065;BME280;63646;49.110;9.140;2023-02-04T16:05:38;101307.72;;;21.37;47.33
75065;BME280;63646;49.110;9.140;2023-02-04T16:08:03;101309.41;;;21.38;47.57
75065;BME280;63646;49.110;9.140;2023-02-04T16:10:29;101308.75;;;21.35;47.88
75065;BME280;63646;49.110;9.140;2023-02-04T16:12:54;101316.72;;;21.35;47.91
75065;BME280;63646;49.110;9.140;2023-02-04T16:15:23;101320.16;;;21.37;47.49
75065;BME280;63646;49.110;9.140;2023-02-04T16:17:48;101319.31;;;21.36;48.02
75065;BME280;63646;49.110;9.140;2023-02-04T16:20:15;101330.69;;;21.38;47.63
75065;BME280;63646;49.110;9.140;2023-02-04T16:22:41;101328.22;;;21.35;47.84
75065;BME280;63646;49.110;9.140;2023-02-04T16:25:06;101329.09;;;21.36;48.03
75065;BME280;63646;49.110;9.140;2023-02-04T16:27:32;101331.84;;;21.34;47.85
75065;BME280;63646;49.110;9.140;2023-02-04T16:29:58;101336.97;;;21.37;47.87
75065;BME280;63646;49.110;9.140;2023-02-04T16:32:25;101341.50;;;21.35;48.13
75065;BME280;63646;49.110;9.140;2023-02-04T16:34:50;101348.56;;;21.36;47.59
75065;BME280;63646;49.110;9.140;2023-02-04T16:37:17;101350.53;;;21.33;48.17
75065;BME280;63646;49.110;9.140;2023-02-04T16:39:42;101348.91;;;21.30;48.04
75065;BME280;63646;49.110;9.140;2023-02-04T16:42:13;101342.09;;;21.26;48.06
75065;BME280;63646;49.110;9.140;2023-02-04T16:44:38;101361.25;;;21.31;48.26
75065;BME280;63646;49.110;9.140;2023-02-04T16:47:10;101357.66;;;21.32;48.00
75065;BME280;63646;49.110;9.140;2023-02-04T16:49:36;101357.66;;;21.32;48.30
75065;BME280;63646;49.110;9.140;2023-02-04T16:52:02;101352.41;;;21.31;47.90
75065;BME280;63646;49.110;9.140;2023-02-04T16:54:33;101355.06;;;21.31;48.22
75065;BME280;63646;49.110;9.140;2023-02-04T16:56:59;101359.53;;;21.30;48.38
75065;BME280;63646;49.110;9.140;2023-02-04T16:59:26;101346.56;;;21.26;47.98
75065;BME280;63646;49.110;9.140;2023-02-04T17:01:52;101355.94;;;21.31;48.18
75065;BME280;63646;49.110;9.140;2023-02-04T17:04:18;101364.75;;;21.32;48.40
75065;BME280;63646;49.110;9.140;2023-02-04T17:06:43;101368.47;;;21.29;48.31
75065;BME280;63646;49.110;9.140;2023-02-04T17:09:09;101360.50;;;21.29;48.46
75065;BME280;63646;49.110;9.140;2023-02-04T17:11:34;101360.81;;;21.25;48.37
75065;BME280;63646;49.110;9.140;2023-02-04T17:14:04;101372.00;;;21.30;48.22
75065;BME280;63646;49.110;9.140;2023-02-04T17:16:31;101359.91;;;21.24;48.27
75065;BME280;63646;49.110;9.140;2023-02-04T17:18:57;101370.19;;;21.30;48.15
75065;BME280;63646;49.110;9.140;2023-02-04T17:21:24;101373.97;;;21.26;48.37
75065;BME280;63646;49.110;9.140;2023-02-04T17:23:50;101366.31;;;21.21;48.24
75065;BME280;63646;49.110;9.140;2023-02-04T17:26:15;101368.31;;;21.18;48.49
75065;BME280;63646;49.110;9.140;2023-02-04T17:28:44;101360.13;;;21.21;48.37
75065;BME280;63646;49.110;9.140;2023-02-04T17:31:09;101379.13;;;21.29;48.29
75065;BME280;63646;49.110;9.140;2023-02-04T17:33:35;101377.59;;;21.25;48.62
75065;BME280;63646;49.110;9.140;2023-02-04T17:36:04;101366.00;;;21.26;48.45
75065;BME280;63646;49.110;9.140;2023-02-04T17:38:34;101368.66;;;21.26;48.22
75065;BME280;63646;49.110;9.140;2023-02-04T17:40:59;101369.69;;;21.23;48.28
75065;BME280;63646;49.110;9.140;2023-02-04T17:43:26;101371.50;;;21.23;48.57
75065;BME280;63646;49.110;9.140;2023-02-04T17:45:52;101377.78;;;21.22;48.69
75065;BME280;63646;49.110;9.140;2023-02-04T17:48:20;101368.84;;;21.23;48.45
75065;BME280;63646;49.110;9.140;2023-02-04T17:50:46;101375.03;;;21.23;48.82
75065;BME280;63646;49.110;9.140;2023-02-04T17:53:21;101383.19;;;21.20;48.49
75065;BME280;63646;49.110;9.140;2023-02-04T17:55:47;101373.31;;;21.22;48.34
75065;BME280;63646;49.110;9.140;2023-02-04T18:00:44;101386.44;;;21.26;48.58
75065;BME280;63646;49.110;9.140;2023-02-04T18:03:18;101381.13;;;21.26;48.30